Time;durP1;ratioP1;P1;durP2;ratioP2;P2;SDS_P1;SDS_P2;PMS_P1;PMS_P2;Temp;Humidity;BMP_temperature;BMP_pressure;BME280_temperature;BME280_humidity;BME280_pressure;Samples;Min_cycle;Max_cycle;Signal;HPM_P1;HPM_P2
2023/03/21 00:00:43;;;;;;;9.60;5.40;;;11.90;83.50;;;;;;5005986;28;20018;-67
2023/03/21 00:03:09;;;;;;;10.40;5.13;;;12.00;83.60;;;;;;5015500;28;20028;-66
2023/03/21 00:05:48;;;;;;;9.07;4.65;;;11.90;83.50;;;;;;5034489;28;20021;-67
2023/03/21 00:08:14;;;;;;;8.82;4.45;;;11.90;83.50;;;;;;5010003;28;20037;-66
2023/03/21 00:10:40;;;;;;;10.73;4.65;;;11.90;83.70;;;;;;5031107;28;20403;-67
2023/03/21 00:13:06;;;;;;;9.52;5.10;;;11.90;83.70;;;;;;5024197;28;20042;-66
2023/03/21 00:15:32;;;;;;;9.75;5.13;;;11.90;84.00;;;;;;5022654;28;20026;-66
2023/03/21 00:18:02;;;;;;;15.02;4.95;;;11.90;84.30;;;;;;5019814;28;20076;-64
2023/03/21 00:20:30;;;;;;;8.43;5.20;;;11.80;84.40;;;;;;5022058;28;20667;-64
2023/03/21 00:22:55;;;;;;;7.03;4.20;;;11.80;84.50;;;;;;5022875;28;20453;-67
2023/03/21 00:25:21;;;;;;;7.53;4.60;;;11.90;84.40;;;;;;5027770;28;20033;-67
2023/03/21 00:27:46;;;;;;;8.90;4.53;;;11.90;84.30;;;;;;5023767;28;20468;-67
2023/03/21 00:30:13;;;;;;;10.60;5.47;;;11.90;84.30;;;;;;5031363;28;20407;-67
2023/03/21 00:32:40;;;;;;;9.02;4.65;;;11.90;84.40;;;;;;5026230;28;20037;-66
2023/03/21 00:35:06;;;;;;;8.38;5.28;;;11.80;84.90;;;;;;5009480;28;20392;-67
2023/03/21 00:37:31;;;;;;;8.57;5.57;;;11.80;85.10;;;;;;5022083;28;20057;-67
2023/03/21 00:39:57;;;;;;;9.52;6.28;;;11.70;85.10;;;;;;5027500;28;20036;-67
2023/03/21 00:42:23;;;;;;;8.93;4.88;;;11.70;85.60;;;;;;5029386;28;20452;-67
2023/03/21 00:44:48;;;;;;;9.57;5.50;;;11.70;85.60;;;;;;5024060;28;20335;-67
2023/03/21 00:47:14;;;;;;;7.82;4.47;;;11.70;85.70;;;;;;5018261;28;20045;-66
2023/03/21 00:49:40;;;;;;;7.75;4.65;;;11.70;85.80;;;;;;5024050;28;20025;-67
2023/03/21 00:52:07;;;;;;;10.73;5.32;;;11.70;86.00;;;;;;4993716;28;20439;-67
2023/03/21 00:54:34;;;;;;;13.95;6.25;;;11.70;86.10;;;;;;5026825;28;20056;-67
2023/03/21 00:57:01;;;;;;;7.78;4.60;;;11.70;86.10;;;;;;5027530;28;20029;-67
2023/03/21 00:59:28;;;;;;;8.80;4.80;;;11.70;86.10;;;;;;5029347;28;20029;-68
2023/03/21 01:01:53;;;;;;;8.95;4.82;;;11.70;86.10;;;;;;5024406;28;20025;-66
2023/03/21 01:04:20;;;;;;;8.60;5.50;;;11.70;86.10;;;;;;5030431;28;20637;-67
2023/03/21 01:06:46;;;;;;;9.30;4.85;;;11.70;86.10;;;;;;5026522;28;20036;-67
2023/03/21 01:09:19;;;;;;;10.20;4.45;;;11.70;86.10;;;;;;5005597;28;20033;-67
2023/03/21 01:11:46;;;;;;;11.63;4.88;;;11.80;86.00;;;;;;5014167;28;20041;-68
2023/03/21 01:14:13;;;;;;;8.93;4.82;;;11.80;85.90;;;;;;5026982;28;20784;-67
2023/03/21 01:16:40;;;;;;;10.23;4.53;;;11.80;85.70;;;;;;5028411;28;20109;-68
2023/03/21 01:19:07;;;;;;;13.38;5.45;;;11.80;85.50;;;;;;5033934;28;20029;-67
2023/03/21 01:21:33;;;;;;;9.50;5.40;;;11.80;85.50;;;;;;5026909;28;20555;-66
2023/03/21 01:24:00;;;;;;;10.63;5.30;;;11.80;85.70;;;;;;5022169;28;20036;-67
2023/03/21 01:26:26;;;;;;;7.45;4.82;;;11.70;85.70;;;;;;5029884;28;20018;-67
2023/03/21 01:28:52;;;;;;;8.95;5.22;;;11.70;85.80;;;;;;5027499;28;20104;-68
2023/03/21 01:31:18;;;;;;;9.73;4.65;;;11.70;85.80;;;;;;5004794;28;20454;-67
2023/03/21 01:33:44;;;;;;;11.20;6.13;;;11.70;85.80;;;;;;5011722;28;20104;-67
2023/03/21 01:36:20;;;;;;;6.80;4.47;;;11.70;85.70;;;;;;5031272;28;20393;-67
2023/03/21 01:38:46;;;;;;;7.97;5.10;;;11.70;85.60;;;;;;5026019;28;20037;-68
2023/03/21 01:41:51;;;;;;;8.25;4.70;;;11.70;85.60;;;;;;5028724;28;20040;-67
2023/03/21 01:44:18;;;;;;;9.23;4.63;;;11.80;85.50;;;;;;4953591;28;20038;-67
2023/03/21 01:46:49;;;;;;;8.88;4.82;;;11.70;85.50;;;;;;4952168;28;20030;-68
2023/03/21 01:49:28;;;;;;;8.70;5.00;;;11.70;85.60;;;;;;4990887;28;20047;-66
2023/03/21 01:51:59;;;;;;;7.70;5.20;;;11.70;85.70;;;;;;5025334;28;20021;-68
2023/03/21 01:54:31;;;;;;;6.65;3.90;;;11.70;85.80;;;;;;5032453;28;20493;-66
2023/03/21 01:57:00;;;;;;;7.38;4.63;;;11.70;85.80;;;;;;5008669;28;20457;-67
2023/03/21 01:59:37;;;;;;;8.60;5.85;;;11.70;86.50;;;;;;5028175;28;20042;-67
2023/03/21 02:02:08;;;;;;;10.88;4.53;;;11.70;86.00;;;;;;5008206;28;20056;-67
2023/03/21 02:04:37;;;;;;;9.45;5.05;;;11.70;86.10;;;;;;5029813;28;20030;-67
2023/03/21 02:07:13;;;;;;;7.78;4.55;;;11.70;86.00;;;;;;5035424;28;20106;-67
2023/03/21 02:09:43;;;;;;;8.88;5.20;;;11.60;86.70;;;;;;5022513;28;20026;-66
2023/03/21 02:12:09;;;;;;;9.00;4.68;;;11.60;86.20;;;;;;5026188;28;20120;-68
2023/03/21 02:14:37;;;;;;;10.40;5.47;;;11.60;86.20;;;;;;5008539;28;20033;-68
2023/03/21 02:17:21;;;;;;;9.80;5.47;;;11.60;86.20;;;;;;5011192;28;20059;-67
2023/03/21 02:20:05;;;;;;;6.53;3.67;;;11.70;86.10;;;;;;5023902;28;20030;-67
2023/03/21 02:22:36;;;;;;;6.55;3.88;;;11.60;86.20;;;;;;5037065;28;20033;-67
2023/03/21 02:25:05;;;;;;;5.80;4.20;;;11.60;86.20;;;;;;5036133;28;20064;-67
2023/03/21 02:27:39;;;;;;;6.78;4.43;;;11.70;86.10;;;;;;5028604;28;20104;-67
2023/03/21 02:30:29;;;;;;;6.22;4.13;;;11.60;86.00;;;;;;5026896;28;20048;-67
2023/03/21 02:33:08;;;;;;;7.53;4.85;;;11.60;86.10;;;;;;5023762;28;20041;-67
2023/03/21 02:36:00;;;;;;;8.70;4.88;;;11.60;86.20;;;;;;5029391;28;20108;-66
2023/03/21 02:38:31;;;;;;;5.75;4.00;;;11.60;86.10;;;;;;5014504;28;20569;-67
2023/03/21 02:41:20;;;;;;;10.17;4.77;;;11.60;86.20;;;;;;5026333;28;20026;-67
2023/03/21 02:44:10;;;;;;;9.15;5.32;;;11.60;86.10;;;;;;4985618;28;20285;-66
2023/03/21 02:46:42;;;;;;;9.98;4.90;;;11.60;86.30;;;;;;5028793;28;20041;-67
2023/03/21 02:49:28;;;;;;;6.80;4.55;;;11.50;86.30;;;;;;5020331;28;20034;-67
2023/03/21 02:51:57;;;;;;;8.30;4.53;;;11.60;86.30;;;;;;5036808;28;20267;-68
2023/03/21 02:54:24;;;;;;;8.98;4.45;;;11.60;86.30;;;;;;5027128;28;20053;-67
2023/03/21 02:56:52;;;;;;;9.00;5.38;;;11.60;86.20;;;;;;5033387;28;20021;-68
2023/03/21 02:59:20;;;;;;;8.70;5.07;;;11.60;86.30;;;;;;5026781;28;20100;-68
2023/03/21 03:01:45;;;;;;;8.60;4.45;;;11.60;86.40;;;;;;5032419;28;20510;-67
2023/03/21 03:04:22;;;;;;;9.02;4.90;;;11.60;86.20;;;;;;5031555;28;20117;-67
2023/03/21 03:06:57;;;;;;;6.80;4.03;;;11.70;86.20;;;;;;5028240;28;20025;-67
2023/03/21 03:09:41;;;;;;;9.00;5.45;;;11.60;86.10;;;;;;5019678;28;20035;-67
2023/03/21 03:12:30;;;;;;;10.55;5.10;;;11.60;86.20;;;;;;5037470;28;20037;-67
2023/03/21 03:15:16;;;;;;;10.40;5.55;;;11.60;86.20;;;;;;5024677;28;20030;-66
2023/03/21 03:18:18;;;;;;;7.72;4.25;;;11.60;86.20;;;;;;5025130;28;20461;-67
2023/03/21 03:21:02;;;;;;;12.32;5.05;;;11.60;86.20;;;;;;5028980;28;20115;-68
2023/03/21 03:23:49;;;;;;;9.50;5.15;;;11.60;86.30;;;;;;5026249;28;20021;-67
2023/03/21 03:26:23;;;;;;;9.05;5.07;;;11.60;86.30;;;;;;5044263;28;20553;-68
2023/03/21 03:28:53;;;;;;;7.75;4.43;;;11.60;86.10;;;;;;5032728;28;20500;-67
2023/03/21 03:31:28;;;;;;;8.40;4.97;;;11.60;86.00;;;;;;5005860;28;20032;-67
2023/03/21 03:33:57;;;;;;;7.10;4.60;;;11.70;85.90;;;;;;5023291;28;20492;-67
2023/03/21 03:36:34;;;;;;;11.80;4.22;;;11.60;85.90;;;;;;5029180;28;20030;-67
2023/03/21 03:39:03;;;;;;;6.85;4.65;;;11.60;86.00;;;;;;5025607;28;20129;-67
2023/03/21 03:41:32;;;;;;;7.57;4.25;;;11.60;86.00;;;;;;5027283;28;20552;-67
2023/03/21 03:44:00;;;;;;;8.32;4.38;;;11.60;86.10;;;;;;5031849;28;20704;-67
2023/03/21 03:46:32;;;;;;;14.45;4.18;;;11.60;86.10;;;;;;5013791;28;20381;-67
2023/03/21 03:49:03;;;;;;;8.75;4.15;;;11.60;86.10;;;;;;5031718;28;20025;-67
2023/03/21 03:51:35;;;;;;;8.57;4.43;;;11.60;86.20;;;;;;5012793;28;20017;-66
2023/03/21 03:54:14;;;;;;;10.15;5.10;;;11.60;86.20;;;;;;5025872;28;20274;-67
2023/03/21 03:56:40;;;;;;;11.98;5.63;;;11.60;86.10;;;;;;5029634;28;20683;-67
2023/03/21 03:59:06;;;;;;;9.43;4.97;;;11.60;86.20;;;;;;5029950;28;20504;-67
2023/03/21 04:01:33;;;;;;;7.97;4.38;;;11.60;86.10;;;;;;5026842;28;20029;-67
2023/03/21 04:04:00;;;;;;;8.10;3.90;;;11.60;86.10;;;;;;5033372;28;20068;-66
2023/03/21 04:06:27;;;;;;;11.43;4.53;;;11.60;86.00;;;;;;5017986;28;20109;-68
2023/03/21 04:08:55;;;;;;;5.85;3.67;;;11.70;86.00;;;;;;5024192;28;20029;-68
2023/03/21 04:11:21;;;;;;;7.07;4.65;;;11.70;85.80;;;;;;4996811;28;20032;-66
2023/03/21 04:13:47;;;;;;;7.47;3.78;;;11.60;85.80;;;;;;5026850;28;20435;-66
2023/03/21 04:16:13;;;;;;;7.75;3.95;;;11.70;85.90;;;;;;5031429;28;20129;-67
2023/03/21 04:18:40;;;;;;;5.95;3.65;;;11.70;85.80;;;;;;5013431;28;20124;-67
2023/03/21 04:21:11;;;;;;;7.72;3.45;;;11.60;85.60;;;;;;5031157;28;20369;-67
2023/03/21 04:23:37;;;;;;;6.97;3.87;;;11.70;85.60;;;;;;5037993;28;20029;-67
2023/03/21 04:26:04;;;;;;;9.88;3.63;;;11.70;85.60;;;;;;5030120;28;20365;-68
2023/03/21 04:28:30;;;;;;;3.28;2.80;;;11.70;85.40;;;;;;5011264;28;20053;-67
2023/03/21 04:30:56;;;;;;;6.97;3.45;;;11.80;85.40;;;;;;5020597;28;20412;-67
2023/03/21 04:33:24;;;;;;;9.65;3.10;;;11.80;85.80;;;;;;5013723;28;20056;-65
2023/03/21 04:35:55;;;;;;;4.00;2.85;;;11.70;85.10;;;;;;5033555;28;20056;-67
2023/03/21 04:38:21;;;;;;;8.38;2.97;;;11.80;85.20;;;;;;5032212;28;20494;-67
2023/03/21 04:40:47;;;;;;;5.65;3.53;;;11.80;85.20;;;;;;5037503;28;20087;-68
2023/03/21 04:43:13;;;;;;;7.75;3.30;;;11.70;85.10;;;;;;5025437;28;20042;-67
2023/03/21 04:45:39;;;;;;;4.13;2.55;;;11.70;85.70;;;;;;5029264;28;20024;-67
2023/03/21 04:48:05;;;;;;;6.55;3.13;;;11.70;85.10;;;;;;5033364;28;20118;-67
2023/03/21 04:50:31;;;;;;;5.25;3.13;;;11.80;85.00;;;;;;5013237;28;20099;-66
2023/03/21 04:52:56;;;;;;;3.30;2.63;;;11.70;84.90;;;;;;5028397;28;20438;-68
2023/03/21 04:55:25;;;;;;;4.50;3.17;;;11.70;84.80;;;;;;5039828;28;20044;-66
2023/03/21 04:57:51;;;;;;;5.82;3.20;;;11.80;85.00;;;;;;5030395;28;20040;-66
2023/03/21 05:00:17;;;;;;;5.63;3.20;;;11.80;84.90;;;;;;5033182;28;20053;-64
2023/03/21 05:02:43;;;;;;;5.00;2.67;;;11.80;84.80;;;;;;4991646;28;20083;-63
2023/03/21 05:05:10;;;;;;;3.13;2.42;;;11.80;84.70;;;;;;5014658;28;20052;-65
2023/03/21 05:07:38;;;;;;;4.55;3.15;;;11.80;84.60;;;;;;5029126;28;20026;-66
2023/03/21 05:10:05;;;;;;;7.43;2.78;;;11.90;84.50;;;;;;5017894;28;20409;-67
2023/03/21 05:12:31;;;;;;;5.60;2.67;;;11.90;84.50;;;;;;5013830;28;20025;-68
2023/03/21 05:14:56;;;;;;;5.95;2.80;;;11.90;84.50;;;;;;5029982;28;20401;-68
2023/03/21 05:17:27;;;;;;;5.35;3.40;;;11.90;84.40;;;;;;5034295;28;20026;-66
2023/03/21 05:20:08;;;;;;;9.18;2.72;;;11.90;84.40;;;;;;5025895;28;20083;-66
2023/03/21 05:22:39;;;;;;;4.53;2.55;;;11.90;84.40;;;;;;5021394;28;20440;-66
2023/03/21 05:25:07;;;;;;;4.32;3.35;;;11.90;84.40;;;;;;5027173;28;20032;-66
2023/03/21 05:27:34;;;;;;;5.65;3.17;;;11.80;84.30;;;;;;5015832;28;20018;-66
2023/03/21 05:30:16;;;;;;;4.38;2.58;;;11.90;84.30;;;;;;5010995;28;20076;-68
2023/03/21 05:32:42;;;;;;;5.50;2.92;;;11.90;84.30;;;;;;5023632;28;20041;-67
2023/03/21 05:35:09;;;;;;;9.27;2.88;;;11.80;84.30;;;;;;5026642;28;20026;-67
2023/03/21 05:37:34;;;;;;;4.57;2.95;;;11.80;84.30;;;;;;5012145;28;20048;-66
2023/03/21 05:40:00;;;;;;;6.85;3.70;;;11.80;84.30;;;;;;5021184;28;20481;-66
2023/03/21 05:42:25;;;;;;;6.18;3.22;;;11.70;84.30;;;;;;5025533;28;20022;-67
2023/03/21 05:44:51;;;;;;;4.90;2.30;;;11.80;84.40;;;;;;5006105;28;20053;-66
2023/03/21 05:47:17;;;;;;;3.70;2.97;;;11.70;84.90;;;;;;5028754;28;20370;-68
2023/03/21 05:49:43;;;;;;;5.07;2.90;;;11.70;84.30;;;;;;5026367;28;20033;-66
2023/03/21 05:52:10;;;;;;;6.50;3.30;;;11.80;84.40;;;;;;5025413;28;20362;-67
2023/03/21 05:54:35;;;;;;;6.68;3.53;;;11.80;84.40;;;;;;5026159;28;20030;-66
2023/03/21 05:57:02;;;;;;;5.05;2.60;;;11.70;84.30;;;;;;5025124;28;20481;-67
2023/03/21 05:59:28;;;;;;;5.97;3.15;;;11.70;84.40;;;;;;5025311;28;20040;-67
2023/03/21 06:01:53;;;;;;;8.52;3.30;;;11.70;84.50;;;;;;5025001;28;20033;-67
2023/03/21 06:04:19;;;;;;;5.82;3.30;;;11.70;84.50;;;;;;5025024;28;20029;-67
2023/03/21 06:06:45;;;;;;;4.53;2.45;;;11.70;84.40;;;;;;5028566;28;20176;-66
2023/03/21 06:09:11;;;;;;;6.40;3.35;;;11.80;84.40;;;;;;5024010;28;20035;-67
2023/03/21 06:11:40;;;;;;;4.47;2.85;;;11.80;84.40;;;;;;5027336;28;20033;-66
2023/03/21 06:14:06;;;;;;;6.43;3.08;;;11.80;84.30;;;;;;5030270;28;20369;-66
2023/03/21 06:16:32;;;;;;;7.30;2.90;;;11.80;84.30;;;;;;5029334;28;20037;-68
2023/03/21 06:18:57;;;;;;;5.88;3.13;;;11.80;84.20;;;;;;5035065;28;20036;-67
2023/03/21 06:21:23;;;;;;;5.05;3.35;;;11.90;84.30;;;;;;5022682;28;20028;-67
2023/03/21 06:23:51;;;;;;;6.35;3.03;;;11.80;84.20;;;;;;5030337;28;20030;-66
2023/03/21 06:26:21;;;;;;;7.80;4.03;;;11.90;84.10;;;;;;5021328;28;20036;-66
2023/03/21 06:28:49;;;;;;;5.57;2.70;;;11.90;84.00;;;;;;5021912;28;20025;-68
2023/03/21 06:31:14;;;;;;;5.03;2.88;;;12.00;84.00;;;;;;5034298;28;20373;-67
2023/03/21 06:33:41;;;;;;;8.60;3.35;;;11.90;83.90;;;;;;5031206;28;20091;-67
2023/03/21 06:36:08;;;;;;;5.85;3.30;;;11.90;84.00;;;;;;5029446;28;20041;-67
2023/03/21 06:38:36;;;;;;;3.25;2.38;;;11.90;84.00;;;;;;5017304;28;20045;-66
2023/03/21 06:41:03;;;;;;;4.13;2.60;;;11.90;84.00;;;;;;5024590;28;20083;-68
2023/03/21 06:43:30;;;;;;;4.93;3.33;;;12.00;84.00;;;;;;5026607;28;20469;-67
2023/03/21 06:45:56;;;;;;;6.22;2.53;;;12.00;83.90;;;;;;5026116;28;20057;-67
2023/03/21 06:48:22;;;;;;;4.82;2.92;;;12.00;83.80;;;;;;5028722;28;20037;-68
2023/03/21 06:50:51;;;;;;;3.83;2.85;;;12.00;83.80;;;;;;5036503;28;20034;-67
2023/03/21 06:53:19;;;;;;;4.68;2.75;;;12.10;83.80;;;;;;5034539;28;20068;-68
2023/03/21 06:55:52;;;;;;;8.38;3.38;;;12.00;83.70;;;;;;5024566;28;20531;-67
2023/03/21 06:58:18;;;;;;;4.65;2.83;;;12.10;83.70;;;;;;5025665;28;20124;-65
2023/03/21 07:00:44;;;;;;;6.85;3.42;;;12.10;83.70;;;;;;5013054;28;20455;-66
2023/03/21 07:03:13;;;;;;;4.43;2.70;;;12.10;83.70;;;;;;5030525;28;20026;-68
2023/03/21 07:05:40;;;;;;;8.23;2.80;;;12.10;83.60;;;;;;5025867;28;20033;-66
2023/03/21 07:08:09;;;;;;;6.75;3.20;;;12.10;83.50;;;;;;5028956;28;20037;-67
2023/03/21 07:10:38;;;;;;;5.15;2.60;;;12.20;83.40;;;;;;5013898;28;20056;-66
2023/03/21 07:13:04;;;;;;;4.95;2.30;;;12.20;83.40;;;;;;5026634;28;20034;-67
2023/03/21 07:15:30;;;;;;;3.83;2.10;;;12.20;83.40;;;;;;5019522;28;20492;-68
2023/03/21 07:17:55;;;;;;;4.43;3.10;;;12.30;83.50;;;;;;5025885;28;20030;-69
2023/03/21 07:20:21;;;;;;;5.72;2.50;;;12.30;83.40;;;;;;5009104;28;20091;-68
2023/03/21 07:22:47;;;;;;;6.25;2.95;;;12.30;83.30;;;;;;5024426;28;20029;-69
2023/03/21 07:25:13;;;;;;;3.75;1.88;;;12.30;83.20;;;;;;5029175;28;20493;-67
2023/03/21 07:27:38;;;;;;;4.68;2.10;;;12.40;83.10;;;;;;5029754;28;20543;-68
2023/03/21 07:30:05;;;;;;;5.95;3.03;;;12.40;83.10;;;;;;5031865;28;20069;-70
2023/03/21 07:32:36;;;;;;;9.02;2.88;;;12.50;83.10;;;;;;5008720;28;20485;-70
2023/03/21 07:35:02;;;;;;;5.93;3.00;;;12.50;83.00;;;;;;5010379;28;20036;-71
2023/03/21 07:37:28;;;;;;;5.10;2.85;;;12.40;83.00;;;;;;5025878;28;20029;-72
2023/03/21 07:40:13;;;;;;;9.57;2.95;;;12.40;83.10;;;;;;5033392;28;20048;-68
2023/03/21 07:42:40;;;;;;;10.27;3.75;;;12.50;82.80;;;;;;4994889;28;20033;-67
2023/03/21 07:45:07;;;;;;;7.05;3.38;;;12.40;82.70;;;;;;5025583;28;20040;-69
2023/03/21 07:47:34;;;;;;;13.07;3.25;;;12.40;82.60;;;;;;5028735;28;20030;-68
2023/03/21 07:50:00;;;;;;;4.45;2.63;;;12.40;82.60;;;;;;5022001;28;20036;-70
2023/03/21 07:52:26;;;;;;;5.00;2.08;;;12.50;82.60;;;;;;5026436;28;20033;-69
2023/03/21 07:54:52;;;;;;;4.28;2.40;;;12.50;82.50;;;;;;5031269;28;20083;-67
2023/03/21 07:57:17;;;;;;;5.97;2.83;;;12.40;82.40;;;;;;5027548;28;20033;-68
2023/03/21 07:59:43;;;;;;;4.28;2.70;;;12.40;82.40;;;;;;5024252;28;20049;-67
2023/03/21 08:02:16;;;;;;;3.58;2.28;;;12.40;82.50;;;;;;5010655;28;20033;-68
2023/03/21 08:04:42;;;;;;;7.38;2.55;;;12.30;82.40;;;;;;5023641;28;20022;-70
2023/03/21 08:07:09;;;;;;;5.78;2.67;;;12.30;82.50;;;;;;5025117;28;20297;-69
2023/03/21 08:09:36;;;;;;;5.38;3.30;;;12.30;82.60;;;;;;5026837;28;20032;-68
2023/03/21 08:12:02;;;;;;;6.20;3.78;;;12.30;82.60;;;;;;5010943;28;20045;-67
2023/03/21 08:14:28;;;;;;;5.68;3.10;;;12.30;82.60;;;;;;5026924;28;20025;-68
2023/03/21 08:17:12;;;;;;;9.50;2.47;;;12.30;82.80;;;;;;5029879;28;20495;-68
2023/03/21 08:19:38;;;;;;;5.32;2.75;;;12.30;82.90;;;;;;5006427;28;20040;-68
2023/03/21 08:22:05;;;;;;;5.82;2.72;;;12.30;83.20;;;;;;5011690;28;20026;-69
2023/03/21 08:24:32;;;;;;;6.05;2.53;;;12.30;83.10;;;;;;5032048;28;20112;-69
2023/03/21 08:27:00;;;;;;;4.47;2.47;;;12.40;83.30;;;;;;5021772;28;20037;-70
2023/03/21 08:29:25;;;;;;;4.05;2.50;;;12.30;83.20;;;;;;4991198;28;20021;-69
2023/03/21 08:31:51;;;;;;;7.18;2.08;;;12.30;83.20;;;;;;5019158;28;20030;-70
2023/03/21 08:34:18;;;;;;;5.95;2.22;;;12.30;83.30;;;;;;5030416;28;20033;-70
2023/03/21 08:36:44;;;;;;;5.65;2.78;;;12.30;83.30;;;;;;5004206;28;20029;-69
2023/03/21 08:39:09;;;;;;;3.72;2.35;;;12.30;83.30;;;;;;5028209;28;20552;-69
2023/03/21 08:41:36;;;;;;;9.90;3.08;;;12.40;83.40;;;;;;5024990;28;20033;-67
2023/03/21 08:44:04;;;;;;;5.85;2.97;;;12.30;83.60;;;;;;5019631;28;20396;-69
2023/03/21 08:46:30;;;;;;;4.47;2.17;;;12.30;83.60;;;;;;5016688;28;20122;-71
2023/03/21 08:48:56;;;;;;;5.60;2.08;;;12.40;83.60;;;;;;5019245;28;20025;-69
2023/03/21 08:51:22;;;;;;;3.78;2.22;;;12.50;83.60;;;;;;5021567;28;20601;-68
2023/03/21 08:53:51;;;;;;;2.80;1.77;;;12.50;83.50;;;;;;5019582;28;20045;-73
2023/03/21 08:56:17;;;;;;;2.88;2.00;;;12.50;83.40;;;;;;5016868;28;20036;-72
2023/03/21 08:58:44;;;;;;;6.25;2.42;;;12.60;83.40;;;;;;5005877;28;20449;-73
2023/03/21 09:01:14;;;;;;;7.53;2.35;;;12.60;83.40;;;;;;5027840;28;20072;-68
2023/03/21 09:03:41;;;;;;;5.35;2.10;;;12.60;83.30;;;;;;5026214;28;20156;-68
2023/03/21 09:06:09;;;;;;;3.88;2.22;;;12.60;83.20;;;;;;5028263;28;20034;-68
2023/03/21 09:08:36;;;;;;;3.50;2.03;;;12.60;83.30;;;;;;5022757;28;20038;-67
2023/03/21 09:11:02;;;;;;;5.18;2.38;;;12.60;83.20;;;;;;5003339;28;20041;-68
2023/03/21 09:13:28;;;;;;;6.90;1.70;;;12.60;83.30;;;;;;5023811;28;20037;-67
2023/03/21 09:15:54;;;;;;;3.40;2.35;;;12.60;83.30;;;;;;5024089;28;20037;-69
2023/03/21 09:18:21;;;;;;;3.70;2.10;;;12.60;83.30;;;;;;5022910;28;20048;-68
2023/03/21 09:20:49;;;;;;;8.40;3.22;;;12.60;83.30;;;;;;5025585;28;20171;-68
2023/03/21 09:23:15;;;;;;;4.13;2.15;;;12.60;83.40;;;;;;5025477;28;20038;-67
2023/03/21 09:25:43;;;;;;;5.85;2.85;;;12.60;83.30;;;;;;5024701;28;20033;-68
2023/03/21 09:28:09;;;;;;;8.75;2.55;;;12.70;83.50;;;;;;5021956;28;20021;-69
2023/03/21 09:30:35;;;;;;;3.60;1.90;;;12.80;83.30;;;;;;5011953;28;20160;-68
2023/03/21 09:33:05;;;;;;;3.30;2.28;;;12.80;84.00;;;;;;5011039;28;20041;-67
2023/03/21 09:35:31;;;;;;;5.43;2.00;;;12.90;83.20;;;;;;5028930;28;20030;-68
2023/03/21 09:37:57;;;;;;;5.68;2.67;;;12.90;83.10;;;;;;5008567;28;20494;-68
2023/03/21 09:40:45;;;;;;;6.53;2.55;;;12.90;83.20;;;;;;5024609;28;20033;-69
2023/03/21 09:43:48;;;;;;;4.15;2.28;;;13.00;83.20;;;;;;5023585;28;20535;-67
2023/03/21 09:46:44;;;;;;;3.92;2.63;;;13.10;83.00;;;;;;5022317;28;20017;-67
2023/03/21 09:49:21;;;;;;;8.35;3.15;;;13.00;83.10;;;;;;5035163;28;20052;-68
2023/03/21 09:51:51;;;;;;;5.22;1.95;;;13.00;83.10;;;;;;5027946;28;20029;-68
2023/03/21 09:54:31;;;;;;;4.35;2.42;;;13.10;83.20;;;;;;5029518;28;20057;-68
2023/03/21 09:57:10;;;;;;;5.28;2.00;;;13.10;83.20;;;;;;5025950;28;20456;-69
2023/03/21 09:59:39;;;;;;;2.55;1.95;;;13.10;83.10;;;;;;5026322;28;20480;-68
2023/03/21 10:02:37;;;;;;;2.30;1.80;;;13.10;83.10;;;;;;5023548;28;20064;-68
2023/03/21 10:05:14;;;;;;;3.13;1.73;;;13.10;83.00;;;;;;5026792;28;20468;-68
2023/03/21 10:07:51;;;;;;;3.80;2.55;;;13.10;83.10;;;;;;5011823;28;20028;-68
2023/03/21 10:10:23;;;;;;;3.42;2.58;;;13.10;83.00;;;;;;5001981;28;20565;-68
2023/03/21 10:12:51;;;;;;;2.92;1.98;;;13.20;82.80;;;;;;5024972;28;20060;-67
2023/03/21 10:15:20;;;;;;;7.93;2.33;;;13.20;82.70;;;;;;5022883;28;20408;-67
2023/03/21 10:17:56;;;;;;;3.47;2.30;;;13.20;82.60;;;;;;5005906;28;20026;-69
2023/03/21 10:20:25;;;;;;;4.53;2.25;;;13.30;82.90;;;;;;5013147;28;20032;-67
2023/03/21 10:22:54;;;;;;;3.60;2.08;;;13.30;83.00;;;;;;5029039;28;20531;-68
2023/03/21 10:25:43;;;;;;;4.43;2.03;;;13.30;83.00;;;;;;5026947;28;20026;-70
2023/03/21 10:28:15;;;;;;;4.32;1.80;;;13.40;82.70;;;;;;5009990;28;20528;-68
2023/03/21 10:30:47;;;;;;;6.85;2.38;;;13.50;82.60;;;;;;5021658;28;20111;-68
2023/03/21 10:33:26;;;;;;;2.85;1.77;;;13.60;82.60;;;;;;5007477;28;21327;-67
2023/03/21 10:35:57;;;;;;;5.10;2.80;;;13.60;82.10;;;;;;5023027;28;20477;-68
2023/03/21 10:38:24;;;;;;;3.47;2.42;;;13.70;81.90;;;;;;5025998;28;20072;-67
2023/03/21 10:40:50;;;;;;;4.38;1.40;;;13.80;81.90;;;;;;5021979;28;20046;-68
2023/03/21 10:43:24;;;;;;;5.22;2.53;;;13.80;81.80;;;;;;5006101;28;20080;-68
2023/03/21 10:45:51;;;;;;;2.85;1.85;;;13.90;81.70;;;;;;5027330;28;20079;-68
2023/03/21 10:48:18;;;;;;;4.15;2.63;;;13.90;81.00;;;;;;5025343;28;20384;-68
2023/03/21 10:50:48;;;;;;;4.35;2.38;;;13.70;80.60;;;;;;5019368;28;20064;-68
2023/03/21 10:53:28;;;;;;;2.95;1.70;;;13.70;81.00;;;;;;5021904;28;20037;-67
2023/03/21 10:55:59;;;;;;;6.03;2.92;;;13.80;81.50;;;;;;5026968;28;20021;-68
2023/03/21 10:58:32;;;;;;;4.22;2.30;;;13.90;81.40;;;;;;5032698;28;20033;-68
2023/03/21 11:01:04;;;;;;;5.93;2.50;;;13.90;81.10;;;;;;5035695;28;20025;-67
2023/03/21 11:03:31;;;;;;;2.92;2.28;;;14.00;81.20;;;;;;5024060;28;20444;-68
2023/03/21 11:06:12;;;;;;;5.78;1.90;;;14.10;80.70;;;;;;5018376;28;20421;-68
2023/03/21 11:08:44;;;;;;;6.15;2.00;;;14.20;80.40;;;;;;5028706;28;20461;-68
2023/03/21 11:11:17;;;;;;;3.42;1.95;;;14.20;80.10;;;;;;5026931;28;20140;-68
2023/03/21 11:13:44;;;;;;;4.38;1.73;;;14.30;80.10;;;;;;5027924;28;20035;-66
2023/03/21 11:16:26;;;;;;;4.55;2.38;;;14.40;79.90;;;;;;4993413;28;20037;-67
2023/03/21 11:18:56;;;;;;;8.63;2.63;;;14.50;79.40;;;;;;5025212;28;20029;-67
2023/03/21 11:21:26;;;;;;;3.85;1.80;;;14.60;79.10;;;;;;5011118;28;20021;-68
2023/03/21 11:23:55;;;;;;;4.95;2.22;;;14.60;78.40;;;;;;5030899;28;20068;-68
2023/03/21 11:26:35;;;;;;;4.65;1.75;;;14.50;77.90;;;;;;5026978;28;20079;-69
2023/03/21 11:29:31;;;;;;;6.38;1.88;;;14.50;78.80;;;;;;5009631;28;20361;-68
2023/03/21 11:32:24;;;;;;;3.42;2.35;;;14.60;78.70;;;;;;5023596;28;20059;-68
2023/03/21 11:34:56;;;;;;;1.65;1.52;;;14.70;78.80;;;;;;5001074;28;20030;-68
2023/03/21 11:37:30;;;;;;;5.22;1.80;;;14.80;78.70;;;;;;5014609;28;20181;-67
2023/03/21 11:40:05;;;;;;;8.23;2.15;;;14.80;77.30;;;;;;5026857;28;20040;-69
2023/03/21 11:42:39;;;;;;;3.08;1.48;;;14.70;77.10;;;;;;5026970;28;20055;-69
2023/03/21 11:45:14;;;;;;;2.92;2.15;;;14.60;77.30;;;;;;5023887;28;20033;-68
2023/03/21 11:47:39;;;;;;;3.83;2.25;;;14.60;77.20;;;;;;5021657;28;20837;-68
2023/03/21 11:50:28;;;;;;;3.85;2.05;;;14.50;76.70;;;;;;5015481;28;20097;-68
2023/03/21 11:53:03;;;;;;;4.10;2.42;;;14.60;76.60;;;;;;5021259;28;20039;-68
2023/03/21 11:55:37;;;;;;;6.07;1.98;;;14.60;76.50;;;;;;5033239;28;20628;-67
2023/03/21 11:58:30;;;;;;;4.18;2.13;;;14.70;76.30;;;;;;5026996;28;20029;-69
2023/03/21 12:01:05;;;;;;;;;;;14.70;75.90;;;;;;5022222;28;20025;-68
2023/03/21 12:03:55;;;;;;;10.30;2.95;;;14.70;75.00;;;;;;5026474;28;20008;-68
2023/03/21 12:06:24;;;;;;;7.25;2.05;;;14.60;75.00;;;;;;5022177;28;20491;-68
2023/03/21 12:09:09;;;;;;;2.75;2.40;;;14.60;75.30;;;;;;5026361;28;20507;-68
2023/03/21 12:11:53;;;;;;;3.35;1.55;;;14.70;75.70;;;;;;5018866;28;20053;-68
2023/03/21 12:14:27;;;;;;;3.17;2.25;;;14.60;75.30;;;;;;5019578;28;20060;-68
2023/03/21 12:17:15;;;;;;;3.22;2.00;;;14.60;74.80;;;;;;5025636;28;20123;-69
2023/03/21 12:19:55;;;;;;;2.80;2.30;;;14.60;74.70;;;;;;5027461;28;20048;-69
2023/03/21 12:22:44;;;;;;;4.13;2.30;;;14.60;74.60;;;;;;5026801;28;20029;-68
2023/03/21 12:25:23;;;;;;;5.00;2.67;;;14.60;74.70;;;;;;5028422;28;20781;-68
2023/03/21 12:28:14;;;;;;;3.53;1.88;;;14.70;74.80;;;;;;5029056;28;20021;-68
2023/03/21 12:30:58;;;;;;;3.88;2.17;;;14.80;75.00;;;;;;5009300;28;20153;-68
2023/03/21 12:33:36;;;;;;;4.13;2.25;;;14.90;74.40;;;;;;5008830;28;20037;-68
2023/03/21 12:36:50;;;;;;;3.25;1.70;;;14.90;74.60;;;;;;5028058;28;20053;-68
2023/03/21 12:39:28;;;;;;;9.23;2.03;;;14.90;74.50;;;;;;4948715;28;20055;-68
2023/03/21 12:42:24;;;;;;;7.05;2.30;;;14.80;74.80;;;;;;5023670;28;20037;-67
2023/03/21 12:45:11;;;;;;;6.20;1.65;;;14.80;74.90;;;;;;5016848;28;20032;-68
2023/03/21 12:47:41;;;;;;;5.32;2.10;;;14.80;74.20;;;;;;5028205;28;20524;-68
2023/03/21 12:50:28;;;;;;;3.75;1.90;;;14.70;74.00;;;;;;5022702;28;20082;-68
2023/03/21 12:53:23;;;;;;;2.17;1.65;;;14.70;74.10;;;;;;5003554;28;20065;-69
2023/03/21 12:55:49;;;;;;;3.08;2.10;;;14.70;74.30;;;;;;5027530;28;20057;-69
2023/03/21 12:58:21;;;;;;;2.13;1.48;;;14.60;74.00;;;;;;5023951;28;20083;-68
2023/03/21 13:00:55;;;;;;;6.35;2.03;;;14.60;74.00;;;;;;5024866;28;20037;-68
2023/03/21 13:03:27;;;;;;;3.58;1.58;;;14.60;73.80;;;;;;5023566;28;20481;-69
2023/03/21 13:05:57;;;;;;;3.00;1.65;;;14.60;73.50;;;;;;5029832;28;20060;-67